Victoria, IL (61485)

7:15 AM CDT on August 30, 2015 (GMT -0500)
Maplewood | | Change Station
CLOSE
Current Station
Personal Weather Station
Location: Toulon, IL
Elevation: 725 ft
Nearby Weather Stations

Elev 725 ft 41.09 °N, 89.87 °W | Updated 21 seconds ago

Fog
Fog
65.5 °F
Feels Like 65.5 °F
N
0.9
Wind Variable Wind from NNE
Gusts 2.5 mph

Today
High -- | Low -- °F
--% Chance of Precip.
Yesterday
High -- | Low -- °F
Precip. -- in
6:24 AM 7:36 PM
Full, 99% visible
Pressure 30.06 in
Visibility 0.2 miles
Clouds Overcast 200 ft
Dew Point 65 °F
Humidity 99%
Rainfall 0.00 in
Snow Depth Not available.
UV 0.0 out of 12
Pollen 10.30 out of 12
Air Quality Not available.
Flu Activity Not available.
METAR KGBG 301155Z AUTO 04004KT M1/4SM -DZ OVC002 17/17 A3006 RMK AO2 LTG DSNT S T01720170 10193 20167
Pressure 30.06 in
Visibility 0.2 miles
Clouds Overcast 200 ft
Dew Point 65 °F
Humidity 99%
Rainfall 0.00 in
Snow Depth Not available.
UV 0.0 out of 12
Pollen 10.30 out of 12
Air Quality Not available.
Flu Activity Not available.
METAR KGBG 301155Z AUTO 04004KT M1/4SM -DZ OVC002 17/17 A3006 RMK AO2 LTG DSNT S T01720170 10193 20167

10-Day Weather Forecast

×

Almanac

Astronomy

Aug. 30, 2015 Rise Set
Actual Time
Civil Twilight
Nautical Twilight
Astronomical Twilight
Moon
Length of Visible Light
Length of Day
Tomorrow will be .
, % of the Moon is Illuminated

Today's Extremes

State Highs State Lows

Community

WunderPhotos

Upload Photos

1,850,936 photos uploaded!

WunderBlogs® & News

Nearby

Air Quality

  Air Quality AQ Index Pollutant
Not available.

Snow Depth

Station Depth Elevation

Earthquake Activity

City Distance Mag. Time & Date
Minimum magnitude displayed is 2.5.

Coastal Water Temperatures

Place Temperature

Stations

Nearby Weather Stations

Station Location Temp. Windchill Dew Point Humidity Wind Precip. Elev Updated Type